createdAt,value
2018-06-20T00:02:21.651Z,100473.63
2018-06-20T00:04:50.425Z,100482.95
2018-06-20T00:07:19.837Z,100485.21
2018-06-20T00:09:49.399Z,100485.41
2018-06-20T00:12:18.870Z,100493.15
2018-06-20T00:14:48.138Z,100489.84
2018-06-20T00:17:17.513Z,100483.86
2018-06-20T00:19:46.247Z,100489.46
2018-06-20T00:22:15.622Z,100488.33
2018-06-20T00:24:44.349Z,100495.02
2018-06-20T00:27:13.123Z,100494.09
2018-06-20T00:29:42.603Z,100496.16
2018-06-20T00:32:11.550Z,100501.52
2018-06-20T00:34:40.321Z,100503.05
2018-06-20T00:37:09.212Z,100508.59
2018-06-20T00:39:37.955Z,100514.98
2018-06-20T00:42:07.114Z,100508.20
2018-06-20T00:44:35.923Z,100503.56
2018-06-20T00:47:05.744Z,100504.79
2018-06-20T00:49:36.022Z,100507.16
2018-06-20T00:52:06.378Z,100509.02
2018-06-20T00:54:35.159Z,100504.37
2018-06-20T00:57:04.267Z,100507.45
2018-06-20T00:59:34.757Z,100496.14
2018-06-20T01:02:03.784Z,100507.89
2018-06-20T01:04:32.537Z,100502.42
2018-06-20T01:07:02.619Z,100499.12
2018-06-20T01:09:32.288Z,100492.42
2018-06-20T01:12:01.557Z,100504.47
2018-06-20T01:14:31.790Z,100513.85
2018-06-20T01:17:01.936Z,100508.38
2018-06-20T01:19:31.904Z,100521.27
2018-06-20T01:22:02.352Z,100515.08
2018-06-20T01:24:31.553Z,100513.02
2018-06-20T01:27:00.839Z,100523.95
2018-06-20T01:29:30.763Z,100501.89
2018-06-20T01:31:59.826Z,100518.98
2018-06-20T01:34:28.905Z,100519.50
2018-06-20T01:36:58.054Z,100521.36
2018-06-20T01:39:26.809Z,100519.81
2018-06-20T01:41:55.708Z,100521.16
2018-06-20T01:44:24.526Z,100529.19
2018-06-20T01:46:53.315Z,100527.03
2018-06-20T01:49:22.737Z,100520.12
2018-06-20T01:51:51.979Z,100525.37
2018-06-20T01:54:20.819Z,100537.12
2018-06-20T01:56:50.471Z,100547.55
2018-06-20T01:59:19.233Z,100547.24
2018-06-20T02:01:47.973Z,100553.94
2018-06-20T02:04:16.759Z,100536.09
2018-06-20T02:06:46.325Z,100536.61
2018-06-20T02:09:15.090Z,100541.77
2018-06-20T02:11:44.470Z,100536.92
2018-06-20T02:14:13.818Z,100543.41
2018-06-20T02:16:43.408Z,100543.11
2018-06-20T02:19:12.191Z,100553.42
2018-06-20T02:21:42.339Z,100541.67
2018-06-20T02:24:11.095Z,100550.85
2018-06-20T02:26:40.701Z,100544.78
2018-06-20T02:29:09.820Z,100541.39
2018-06-20T02:31:39.049Z,100543.12
2018-06-20T02:34:07.815Z,100551.06
2018-06-20T02:36:36.705Z,100552.01
2018-06-20T02:39:08.128Z,100556.96
2018-06-20T02:41:37.686Z,100555.39
2018-06-20T02:44:06.472Z,100547.45
2018-06-20T02:46:35.285Z,100536.78
2018-06-20T02:49:05.311Z,100534.08
2018-06-20T02:51:35.495Z,100540.05
2018-06-20T02:54:06.099Z,100540.62
2018-06-20T02:56:35.314Z,100547.06
2018-06-20T02:59:05.292Z,100539.70
2018-06-20T03:01:34.167Z,100535.09
2018-06-20T03:04:03.177Z,100536.65
2018-06-20T03:06:32.755Z,100544.91
2018-06-20T03:09:03.729Z,100544.41
2018-06-20T03:11:33.840Z,100544.50
2018-06-20T03:14:03.230Z,100547.89
2018-06-20T03:16:32.654Z,100556.84
2018-06-20T03:19:01.934Z,100543.35
2018-06-20T03:21:31.424Z,100554.23
2018-06-20T03:24:00.570Z,100559.06
2018-06-20T03:26:30.770Z,100560.61
2018-06-20T03:28:59.954Z,100551.83
2018-06-20T03:31:29.476Z,100549.02
2018-06-20T03:33:58.987Z,100554.00
2018-06-20T03:36:28.407Z,100561.20
2018-06-20T03:38:57.781Z,100563.47
2018-06-20T03:41:27.227Z,100561.53
2018-06-20T03:43:56.341Z,100562.98
2018-06-20T03:46:25.213Z,100565.02
2018-06-20T03:48:55.179Z,100581.00
2018-06-20T03:51:24.586Z,100580.58
2018-06-20T03:53:53.336Z,100582.90
2018-06-20T03:56:23.293Z,100586.72
2018-06-20T03:58:52.661Z,100582.40
2018-06-20T04:01:21.437Z,100575.84
2018-06-20T04:03:50.166Z,100567.58
2018-06-20T04:06:19.710Z,100574.17
2018-06-20T04:08:49.240Z,100578.08
2018-06-20T04:11:18.988Z,100576.60
2018-06-20T04:13:49.362Z,100582.06
2018-06-20T04:16:18.851Z,100586.75
2018-06-20T04:18:47.658Z,100587.66
2018-06-20T04:21:17.323Z,100588.21
2018-06-20T04:23:46.114Z,100593.52
2018-06-20T04:26:15.831Z,100597.38
2018-06-20T04:28:44.574Z,100596.74
2018-06-20T04:31:13.356Z,100608.73
2018-06-20T04:33:42.105Z,100611.84
2018-06-20T04:36:11.694Z,100615.73
2018-06-20T04:38:40.722Z,100615.36
2018-06-20T04:41:10.190Z,100618.77
2018-06-20T04:43:38.913Z,100620.72
2018-06-20T04:46:07.651Z,100611.01
2018-06-20T04:48:37.172Z,100609.73
2018-06-20T04:51:06.754Z,100605.06
2018-06-20T04:53:35.476Z,100600.75
2018-06-20T04:56:04.362Z,100599.09
2018-06-20T04:58:33.945Z,100595.64
2018-06-20T05:01:02.955Z,100600.00
2018-06-20T05:03:31.678Z,100593.70
2018-06-20T05:06:01.650Z,100592.44
2018-06-20T05:08:30.797Z,100595.43
2018-06-20T05:11:01.563Z,100592.98
2018-06-20T05:13:31.058Z,100602.95
2018-06-20T05:16:00.866Z,100598.70
2018-06-20T05:18:30.062Z,100607.27
2018-06-20T05:20:59.093Z,100602.91
2018-06-20T05:23:27.902Z,100606.44
2018-06-20T05:25:57.195Z,100609.45
2018-06-20T05:28:26.278Z,100620.80
2018-06-20T05:30:55.048Z,100608.83
2018-06-20T05:33:23.838Z,100602.27
2018-06-20T05:35:52.591Z,100598.60
2018-06-20T05:38:21.423Z,100616.73
2018-06-20T05:40:51.137Z,100608.34
2018-06-20T05:43:19.871Z,100616.86
2018-06-20T05:45:49.082Z,100605.40
2018-06-20T05:48:18.834Z,100617.16
2018-06-20T05:50:48.425Z,100628.69
2018-06-20T05:53:17.419Z,100626.44
2018-06-20T05:55:46.194Z,100629.07
2018-06-20T05:58:15.775Z,100628.29
2018-06-20T06:00:44.535Z,100623.51
2018-06-20T06:03:13.328Z,100613.45
2018-06-20T06:05:43.895Z,100617.64
2018-06-20T06:08:18.143Z,100615.14
2018-06-20T06:10:47.986Z,100607.41
2018-06-20T06:13:17.608Z,100617.08
2018-06-20T06:15:47.320Z,100621.46
2018-06-20T06:18:16.058Z,100625.95
2018-06-20T06:20:44.779Z,100629.78
2018-06-20T06:23:13.588Z,100623.86
2018-06-20T06:25:43.226Z,100614.86
2018-06-20T06:28:12.537Z,100604.37
2018-06-20T06:30:41.288Z,100612.19
2018-06-20T06:33:10.479Z,100608.30
2018-06-20T06:35:39.313Z,100616.45
2018-06-20T06:38:08.113Z,100614.53
2018-06-20T06:40:37.914Z,100614.97
2018-06-20T06:43:07.946Z,100601.61
2018-06-20T06:45:36.671Z,100599.67
2018-06-20T06:48:06.031Z,100586.53
2018-06-20T06:50:35.650Z,100604.94
2018-06-20T06:53:05.318Z,100596.66
2018-06-20T06:55:34.193Z,100591.89
2018-06-20T06:58:03.899Z,100598.55
2018-06-20T07:01:35.741Z,100604.94
2018-06-20T07:04:04.936Z,100606.73
2018-06-20T07:06:34.970Z,100596.83
2018-06-20T07:09:04.881Z,100607.61
2018-06-20T07:11:34.410Z,100586.80
2018-06-20T07:14:04.184Z,100602.55
2018-06-20T07:16:33.956Z,100598.46
2018-06-20T07:19:02.942Z,100606.59
2018-06-20T07:21:31.665Z,100598.61
2018-06-20T07:24:00.787Z,100592.56
2018-06-20T07:26:30.464Z,100603.80
2018-06-20T07:28:59.384Z,100592.98
2018-06-20T07:31:28.430Z,100582.91
2018-06-20T07:33:57.231Z,100586.98
2018-06-20T07:36:26.033Z,100576.31
2018-06-20T07:38:54.919Z,100580.72
2018-06-20T07:41:24.402Z,100585.97
2018-06-20T07:43:53.181Z,100590.80
2018-06-20T07:46:21.906Z,100584.58
2018-06-20T07:48:51.462Z,100591.85
2018-06-20T07:51:20.797Z,100581.69
2018-06-20T07:53:49.576Z,100566.17
2018-06-20T07:56:18.512Z,100562.86
2018-06-20T07:58:54.234Z,100549.11
2018-06-20T08:01:39.280Z,100554.52
2018-06-20T08:04:13.295Z,100545.36
2018-06-20T08:06:48.056Z,100543.11
2018-06-20T08:09:21.963Z,100537.41
2018-06-20T08:11:56.649Z,100545.47
2018-06-20T08:14:31.995Z,100548.66
2018-06-20T08:17:05.695Z,100541.58
2018-06-20T08:19:39.626Z,100546.48
2018-06-20T08:22:08.477Z,100556.39
2018-06-20T08:24:41.811Z,100553.73
2018-06-20T08:27:11.276Z,100545.49
2018-06-20T08:29:40.018Z,100536.77
2018-06-20T08:32:09.906Z,100533.97
2018-06-20T08:34:38.633Z,100539.88
2018-06-20T08:37:07.595Z,100542.84
2018-06-20T08:39:37.215Z,100533.48
2018-06-20T08:42:06.155Z,100531.57
2018-06-20T08:44:34.898Z,100526.45
2018-06-20T08:47:03.864Z,100537.88
2018-06-20T08:49:32.567Z,100546.30
2018-06-20T08:52:02.618Z,100558.25
2018-06-20T08:54:31.398Z,100553.64
2018-06-20T08:57:00.727Z,100556.52
2018-06-20T08:59:30.438Z,100560.23
2018-06-20T09:01:59.582Z,100569.05
2018-06-20T09:04:33.406Z,100564.30
2018-06-20T09:07:08.045Z,100573.67
2018-06-20T09:09:42.630Z,100569.41
2018-06-20T09:13:15.969Z,100571.02
2018-06-20T09:15:50.763Z,100578.15
2018-06-20T09:18:24.644Z,100574.83
2018-06-20T09:20:53.435Z,100581.28
2018-06-20T09:23:23.055Z,100575.65
2018-06-20T09:25:51.890Z,100575.08
2018-06-20T09:28:21.246Z,100571.86
2018-06-20T09:30:50.013Z,100570.05
2018-06-20T09:33:20.105Z,100577.05
2018-06-20T09:35:48.898Z,100572.65
2018-06-20T09:38:18.672Z,100574.97
2018-06-20T09:40:48.038Z,100577.80
2018-06-20T09:43:16.787Z,100574.15
2018-06-20T09:45:45.526Z,100573.41
2018-06-20T09:48:14.350Z,100568.92
2018-06-20T09:50:49.761Z,100566.30
2018-06-20T09:53:19.199Z,100564.02
2018-06-20T09:55:48.000Z,100569.69
2018-06-20T09:58:17.998Z,100561.30
2018-06-20T10:00:52.029Z,100566.53
2018-06-20T10:03:25.875Z,100563.00
2018-06-20T10:06:00.355Z,100563.57
2018-06-20T10:08:34.290Z,100557.48
2018-06-20T10:11:09.861Z,100555.20
2018-06-20T10:13:46.660Z,100545.83
2018-06-20T10:16:16.585Z,100544.59
2018-06-20T10:18:45.350Z,100542.64
2018-06-20T10:21:14.212Z,100535.35
2018-06-20T10:23:42.970Z,100542.45
2018-06-20T10:26:12.770Z,100538.38
2018-06-20T10:28:41.558Z,100530.72
2018-06-20T10:31:10.393Z,100528.06
2018-06-20T10:33:40.562Z,100533.05
2018-06-20T10:36:09.299Z,100518.53
2018-06-20T10:38:38.065Z,100529.03
2018-06-20T10:41:07.294Z,100524.53
2018-06-20T10:43:36.105Z,100504.33
2018-06-20T10:46:10.223Z,100493.12
2018-06-20T10:48:39.203Z,100493.80
2018-06-20T10:51:08.821Z,100495.17
2018-06-20T10:53:37.599Z,100497.02
2018-06-20T10:56:06.394Z,100498.08
2018-06-20T10:58:41.438Z,100499.91
2018-06-20T11:01:15.366Z,100504.25
2018-06-20T11:03:49.234Z,100500.02
2018-06-20T11:06:24.703Z,100503.09
2018-06-20T11:08:58.658Z,100500.94
2018-06-20T11:11:33.294Z,100499.59
2018-06-20T11:14:03.155Z,100499.30
2018-06-20T11:16:32.677Z,100498.55
2018-06-20T11:19:01.465Z,100501.02
2018-06-20T11:21:30.387Z,100496.39
2018-06-20T11:23:59.238Z,100504.77
2018-06-20T11:26:29.166Z,100499.55
2018-06-20T11:28:58.046Z,100501.02
2018-06-20T11:31:28.154Z,100501.14
2018-06-20T11:33:56.908Z,100485.30
2018-06-20T11:36:25.653Z,100482.86
2018-06-20T11:38:54.416Z,100470.22
2018-06-20T11:41:23.794Z,100483.28
2018-06-20T11:43:52.528Z,100491.19
2018-06-20T11:46:26.526Z,100491.60
2018-06-20T11:48:55.311Z,100486.68
2018-06-20T11:51:24.580Z,100482.39
2018-06-20T11:53:53.297Z,100473.27
2018-06-20T11:56:22.179Z,100492.17
2018-06-20T11:58:57.351Z,100477.94
2018-06-20T12:01:31.448Z,100470.81
2018-06-20T12:04:05.568Z,100476.16
2018-06-20T12:06:40.059Z,100458.29
2018-06-20T12:09:13.864Z,100459.96
2018-06-20T12:11:49.104Z,100468.67
2018-06-20T12:14:23.719Z,100469.17
2018-06-20T12:16:53.154Z,100466.14
2018-06-20T12:19:27.131Z,100460.72
2018-06-20T12:22:01.031Z,100462.86
2018-06-20T12:24:34.886Z,100455.33
2018-06-20T12:27:09.426Z,100449.08
2018-06-20T12:29:44.615Z,100450.97
2018-06-20T12:32:19.494Z,100452.66
2018-06-20T12:34:53.233Z,100441.11
2018-06-20T12:37:27.140Z,100420.44
2018-06-20T12:40:04.862Z,100427.84
2018-06-20T12:43:37.158Z,100425.73
2018-06-20T12:46:10.522Z,100421.28
2018-06-20T12:48:39.409Z,100420.02
2018-06-20T12:51:08.955Z,100411.16
2018-06-20T12:53:37.754Z,100411.84
2018-06-20T12:56:06.645Z,100409.14
2018-06-20T12:58:36.390Z,100420.71
2018-06-20T13:01:05.123Z,100416.75
2018-06-20T13:03:33.951Z,100424.86
2018-06-20T13:06:03.688Z,100421.04
2018-06-20T13:08:32.798Z,100417.06
2018-06-20T13:11:02.360Z,100405.59
2018-06-20T13:13:31.918Z,100400.94
2018-06-20T13:16:01.515Z,100406.77
2018-06-20T13:18:31.010Z,100401.59
2018-06-20T13:20:59.866Z,100394.91
2018-06-20T13:23:28.857Z,100387.25
2018-06-20T13:25:58.018Z,100384.25
2018-06-20T13:28:27.339Z,100378.70
2018-06-20T13:31:02.331Z,100381.50
2018-06-20T13:33:36.949Z,100376.36
2018-06-20T13:36:10.866Z,100378.99
2018-06-20T13:38:44.802Z,100368.52
2018-06-20T13:41:19.343Z,100369.34
2018-06-20T13:43:53.278Z,100370.98
2018-06-20T13:46:27.265Z,100351.48
2018-06-20T13:48:56.884Z,100347.43
2018-06-20T13:51:26.562Z,100345.84
2018-06-20T13:53:55.389Z,100338.62
2018-06-20T13:56:24.197Z,100332.15
2018-06-20T13:58:53.412Z,100325.86
2018-06-20T14:01:22.158Z,100321.75
2018-06-20T14:03:50.914Z,100317.99
2018-06-20T14:06:20.109Z,100309.06
2018-06-20T14:08:48.866Z,100307.03
2018-06-20T14:11:18.830Z,100299.30
2018-06-20T14:13:49.461Z,100296.80
2018-06-20T14:16:18.730Z,100294.41
2018-06-20T14:18:48.182Z,100287.61
2018-06-20T14:21:22.038Z,100279.75
2018-06-20T14:23:50.824Z,100282.56
2018-06-20T14:26:20.768Z,100281.80
2018-06-20T14:28:49.555Z,100271.53
2018-06-20T14:31:23.747Z,100265.17
2018-06-20T14:33:59.064Z,100257.78
2018-06-20T14:36:33.027Z,100254.57
2018-06-20T14:39:07.178Z,100253.39
2018-06-20T14:41:42.867Z,100241.27
2018-06-20T14:44:11.952Z,100238.34
2018-06-20T14:46:40.685Z,100224.33
2018-06-20T14:49:09.503Z,100212.22
2018-06-20T14:51:39.162Z,100210.00
2018-06-20T14:54:08.238Z,100200.48
2018-06-20T14:56:36.993Z,100179.63
2018-06-20T14:59:06.419Z,100176.16
2018-06-20T15:01:35.186Z,100169.08
2018-06-20T15:04:04.054Z,100153.84
2018-06-20T15:06:33.822Z,100139.27
2018-06-20T15:09:02.753Z,100135.23
2018-06-20T15:11:32.682Z,100125.42
2018-06-20T15:14:02.179Z,100117.83
2018-06-20T15:16:38.011Z,100113.53
2018-06-20T15:19:07.402Z,100104.69
2018-06-20T15:21:37.098Z,100087.48
2018-06-20T15:24:05.976Z,100081.64
2018-06-20T15:26:40.407Z,100069.39
2018-06-20T15:29:14.214Z,100067.09
2018-06-20T15:32:50.775Z,100068.03
2018-06-20T15:35:24.825Z,100070.05
2018-06-20T15:37:58.963Z,100053.40
2018-06-20T15:40:28.642Z,100043.09
2018-06-20T15:42:57.374Z,100047.70
2018-06-20T15:45:26.333Z,100049.72
2018-06-20T15:47:55.862Z,100052.33
2018-06-20T15:50:24.613Z,100048.17
2018-06-20T15:52:54.084Z,100040.25
2018-06-20T15:55:22.919Z,100024.94
2018-06-20T15:57:51.667Z,100019.55
2018-06-20T16:00:21.198Z,100032.55
2018-06-20T16:02:49.898Z,100051.25
2018-06-20T16:05:19.857Z,100052.00
2018-06-20T16:07:48.875Z,100031.20
2018-06-20T16:10:19.032Z,100012.69
2018-06-20T16:12:48.663Z,100000.44
2018-06-20T16:15:18.361Z,100011.25
2018-06-20T16:17:47.536Z,100012.19
2018-06-20T16:22:23.962Z,100011.20
2018-06-20T16:24:58.164Z,100022.09
2018-06-20T16:27:33.605Z,100027.47
2018-06-20T16:30:07.727Z,100028.73
2018-06-20T16:32:37.306Z,100031.50
2018-06-20T16:35:06.163Z,100001.76
2018-06-20T16:37:35.054Z,100044.91
2018-06-20T16:40:05.461Z,100027.73
2018-06-20T16:42:34.482Z,100007.95
2018-06-20T16:45:03.560Z,100018.92
2018-06-20T16:47:33.466Z,100016.51
2018-06-20T16:50:02.481Z,100027.89
2018-06-20T16:52:32.115Z,100023.78
2018-06-20T16:55:02.317Z,100041.43
2018-06-20T16:57:32.079Z,100046.80
2018-06-20T17:00:02.477Z,100060.55
2018-06-20T17:02:34.060Z,100064.46
2018-06-20T17:05:03.177Z,100051.84
2018-06-20T17:07:32.863Z,100045.38
2018-06-20T17:10:02.397Z,100045.17
2018-06-20T17:12:37.050Z,100036.70
2018-06-20T17:15:13.009Z,100026.80
2018-06-20T17:17:48.720Z,100032.28
2018-06-20T17:20:22.651Z,100037.40
2018-06-20T17:22:56.612Z,100034.63
2018-06-20T17:25:32.614Z,100029.64
2018-06-20T17:28:04.702Z,100022.39
2018-06-20T17:30:33.598Z,100027.37
2018-06-20T17:33:03.695Z,100034.00
2018-06-20T17:35:32.538Z,100029.78
2018-06-20T17:38:01.794Z,100037.02
2018-06-20T17:40:31.268Z,100033.02
2018-06-20T17:43:00.615Z,100019.17
2018-06-20T17:45:29.587Z,100015.89
2018-06-20T17:47:59.014Z,100006.18
2018-06-20T17:50:28.042Z,100001.32
2018-06-20T17:52:57.626Z,100007.58
2018-06-20T17:55:26.385Z,100000.76
2018-06-20T17:57:56.122Z,99982.08
2018-06-20T18:00:25.789Z,99998.34
2018-06-20T18:02:54.527Z,99983.95
2018-06-20T18:05:30.606Z,99987.41
2018-06-20T18:10:10.584Z,99991.95
2018-06-20T18:12:45.284Z,100012.27
2018-06-20T18:15:19.842Z,99997.08
2018-06-20T18:17:49.446Z,100002.46
2018-06-20T18:20:18.188Z,99995.20
2018-06-20T18:22:46.929Z,99989.00
2018-06-20T18:25:15.788Z,99999.09
2018-06-20T18:27:45.090Z,99997.37
2018-06-20T18:30:13.811Z,99994.61
2018-06-20T18:32:44.141Z,100003.88
2018-06-20T18:35:12.967Z,100007.63
2018-06-20T18:37:41.706Z,100009.56
2018-06-20T18:40:12.658Z,100011.67
2018-06-20T18:42:41.377Z,100012.99
2018-06-20T18:45:10.137Z,100014.58
2018-06-20T18:47:45.143Z,100003.22
2018-06-20T18:50:13.946Z,99998.53
2018-06-20T18:52:43.418Z,100001.46
2018-06-20T18:55:12.237Z,100004.48
2018-06-20T18:57:46.137Z,99998.98
2018-06-20T19:00:20.653Z,100006.44
2018-06-20T19:02:54.570Z,100003.86
2018-06-20T19:05:29.556Z,100004.80
2018-06-20T19:08:03.406Z,100009.23
2018-06-20T19:10:33.490Z,100002.97
2018-06-20T19:13:03.230Z,100003.84
2018-06-20T19:15:32.759Z,99999.94
2018-06-20T19:18:02.367Z,99994.61
2018-06-20T19:20:31.490Z,100004.09
2018-06-20T19:23:00.430Z,100001.94
2018-06-20T19:25:29.618Z,99990.20
2018-06-20T19:27:59.223Z,100001.61
2018-06-20T19:30:28.114Z,99997.87
2018-06-20T19:32:57.608Z,99995.55
2018-06-20T19:35:26.367Z,99995.66
2018-06-20T19:37:55.146Z,99991.91
2018-06-20T19:40:24.450Z,99987.11
2018-06-20T19:42:53.194Z,99982.80
2018-06-20T19:45:21.974Z,99975.84
2018-06-20T19:47:51.710Z,99984.13
2018-06-20T19:50:20.803Z,99986.47
2018-06-20T19:52:50.328Z,99990.75
2018-06-20T19:55:19.095Z,99980.45
2018-06-20T19:57:47.830Z,99980.45
2018-06-20T20:00:17.438Z,99979.31
2018-06-20T20:02:46.232Z,99971.17
2018-06-20T20:05:14.971Z,99981.19
2018-06-20T20:07:44.423Z,99968.25
2018-06-20T20:10:14.087Z,99972.58
2018-06-20T20:12:43.798Z,99958.30
2018-06-20T20:15:13.570Z,99952.09
2018-06-20T20:17:43.026Z,99951.80
2018-06-20T20:20:11.840Z,99956.13
2018-06-20T20:22:40.554Z,99959.64
2018-06-20T20:25:09.324Z,99962.05
2018-06-20T20:27:38.691Z,99957.71
2018-06-20T20:30:07.487Z,99960.93
2018-06-20T20:32:36.810Z,99957.71
2018-06-20T20:35:05.579Z,99947.23
2018-06-20T20:37:34.527Z,99948.88
2018-06-20T20:40:04.160Z,99940.55
2018-06-20T20:42:32.971Z,99929.23
2018-06-20T20:45:01.882Z,99929.78
2018-06-20T20:47:30.854Z,99925.77
2018-06-20T20:49:59.795Z,99917.45
2018-06-20T20:52:29.552Z,99912.06
2018-06-20T20:54:58.470Z,99915.34
2018-06-20T20:57:28.058Z,99909.72
2018-06-20T20:59:57.468Z,99913.28
2018-06-20T21:02:26.328Z,99912.76
2018-06-20T21:04:55.059Z,99914.39
2018-06-20T21:07:24.950Z,99907.16
2018-06-20T21:09:54.418Z,99904.22
2018-06-20T21:12:23.908Z,99901.23
2018-06-20T21:14:53.243Z,99900.77
2018-06-20T21:17:23.143Z,99898.89
2018-06-20T21:19:51.943Z,99894.90
2018-06-20T21:22:22.059Z,99890.86
2018-06-20T21:24:50.815Z,99886.77
2018-06-20T21:27:20.221Z,99884.36
2018-06-20T21:29:48.962Z,99878.16
2018-06-20T21:32:18.726Z,99882.78
2018-06-20T21:34:47.495Z,99877.73
2018-06-20T21:37:16.232Z,99870.47
2018-06-20T21:39:45.621Z,99868.59
2018-06-20T21:42:14.385Z,99865.34
2018-06-20T21:44:43.147Z,99867.19
2018-06-20T21:47:13.007Z,99859.30
2018-06-20T21:49:41.779Z,99859.20
2018-06-20T21:52:11.389Z,99853.86
2018-06-20T21:54:40.423Z,99846.60
2018-06-20T21:57:10.348Z,99838.23
2018-06-20T21:59:39.744Z,99835.78
2018-06-20T22:02:08.554Z,99840.06
2018-06-20T22:04:37.306Z,99838.93
2018-06-20T22:07:07.001Z,99825.70
2018-06-20T22:09:37.442Z,99817.34
2018-06-20T22:12:07.449Z,99815.70
2018-06-20T22:14:36.899Z,99812.96
2018-06-20T22:17:06.352Z,99818.34
2018-06-20T22:19:35.172Z,99799.45
2018-06-20T22:22:04.151Z,99805.13
2018-06-20T22:24:33.116Z,99799.72
2018-06-20T22:27:02.661Z,99801.59
2018-06-20T22:29:31.471Z,99802.14
2018-06-20T22:32:01.983Z,99794.69
2018-06-20T22:34:31.346Z,99786.41
2018-06-20T22:37:00.822Z,99769.97
2018-06-20T22:39:30.731Z,99765.30
2018-06-20T22:41:59.756Z,99774.44
2018-06-20T22:44:29.027Z,99761.80
2018-06-20T22:46:58.455Z,99761.31
2018-06-20T22:49:27.717Z,99763.19
2018-06-20T22:51:57.751Z,99752.22
2018-06-20T22:54:26.863Z,99744.45
2018-06-20T22:56:57.473Z,99738.82
2018-06-20T22:59:27.013Z,99731.03
2018-06-20T23:01:55.791Z,99731.36
2018-06-20T23:04:25.594Z,99722.22
2018-06-20T23:06:55.103Z,99719.86
2018-06-20T23:09:23.888Z,99714.47
2018-06-20T23:11:53.343Z,99714.75
2018-06-20T23:14:22.695Z,99693.73
2018-06-20T23:16:52.002Z,99694.80
2018-06-20T23:19:20.788Z,99695.08
2018-06-20T23:21:49.519Z,99690.81
2018-06-20T23:24:18.353Z,99687.91
2018-06-20T23:26:47.670Z,99687.95
2018-06-20T23:29:16.451Z,99685.31
2018-06-20T23:31:45.938Z,99679.72
2018-06-20T23:34:14.694Z,99681.67
2018-06-20T23:36:43.460Z,99672.56
2018-06-20T23:39:12.270Z,99668.86
2018-06-20T23:41:41.740Z,99667.30
2018-06-20T23:44:10.532Z,99667.05
2018-06-20T23:46:39.333Z,99663.83
2018-06-20T23:49:08.111Z,99661.70
2018-06-20T23:51:37.596Z,99651.49
2018-06-20T23:54:06.380Z,99646.14
2018-06-20T23:56:36.674Z,99643.52
2018-06-20T23:59:06.742Z,99646.25
